Patara — DHEK2 — position and weather

sailwx.info

Track history (hours):
 
Tides and Currents Weather Stations Pressure Air Temp Water Temp Dewpoint Dewpoint Depression Visibility Wind Speed Wind Dir Waves Ship Positions

Patara

Last reported at 2017-Nov-20 06:00 UTC. Time now 2017-Nov-20 21:35 UTC.
Position N 01°42' E 088°24'.

Length 182 m; draft 8.9 m.

Type: Cargo ship. MMSI: 218818000.

Wind from 270 at 9 knots

Barometer 1010.0 mb
Air temperature 29.0 ° C
Visibility: greater than 10.8 NM
Dewpoint 24.1 ° C
Water temperature 30.0 ° C

Date/timePositionNaut miles runAvg speedWind from/ knotsBaromVisibWave heightAir tempDewpointWater temp
2017-Nov-20 06:00N 01°42' E 088°24'19516.2 270 / 91010.010.8 29.024.130.0
2017-Nov-19 18:00N 03°30' E 091°06'22418.7 190 / 71010.910.8 28.224.830.0
2017-Nov-19 06:00N 05°36' E 094°12'20917.4 190 / 101009.810.8 29.023.730.0
2017-Nov-18 18:00N 05°24' E 097°42'41318.5 290 / 121009.210.8 28.024.830.0
2017-Nov-17 19:42N 01°22' E 103°17'419.8
2017-Nov-17 19:29N 01°19' E 103°21'919.2
2017-Nov-17 19:01N 01°13' E 103°28'917.3
2017-Nov-17 18:30N 01°12' E 103°37'4 8.2
2017-Nov-17 18:00N 01°13' E 103°41'611.8
2017-Nov-17 17:30N 01°17' E 103°45'1 1.3
2017-Nov-17 17:00N 01°17' E 103°45'0 0.0
2017-Nov-17 16:29N 01°17' E 103°45'0 0.0
2017-Nov-17 15:57N 01°17' E 103°45'0 0.0
2017-Nov-17 15:30N 01°17' E 103°45'0 0.0
2017-Nov-17 15:00N 01°17' E 103°45'0 0.0
2017-Nov-17 14:29N 01°17' E 103°45'0 0.0
2017-Nov-17 13:58N 01°17' E 103°45'0 0.0
2017-Nov-17 13:30N 01°17' E 103°45'0 0.9
2017-Nov-17 12:58N 01°17' E 103°45'0 0.3
2017-Nov-17 12:28N 01°17' E 103°45'1 1.2
2017-Nov-17 12:01N 01°17' E 103°45'1 2.9
2017-Nov-17 11:30N 01°16' E 103°46'4 8.5
2017-Nov-17 11:00N 01°13' E 103°49'4 7.2
2017-Nov-17 10:30N 01°15' E 103°51'1 1.2
2017-Nov-17 09:58N 01°16' E 103°51'0 0.0
2017-Nov-17 09:27N 01°16' E 103°51'0 0.0
2017-Nov-17 08:54N 01°16' E 103°51'0 0.0
2017-Nov-17 08:29N 01°16' E 103°51'0 0.0
2017-Nov-17 07:59N 01°16' E 103°51'0 0.0
2017-Nov-17 07:25N 01°16' E 103°51'0 0.0
2017-Nov-17 06:58N 01°16' E 103°51'0 0.0
2017-Nov-17 06:27N 01°16' E 103°51'0 0.0
2017-Nov-17 05:59N 01°16' E 103°51'0 0.0
2017-Nov-17 05:30N 01°16' E 103°51'0 0.0
2017-Nov-17 04:56N 01°16' E 103°51'0 0.0
2017-Nov-17 04:29N 01°16' E 103°51'0 0.0
2017-Nov-17 03:57N 01°16' E 103°51'0 0.0
2017-Nov-17 03:24N 01°16' E 103°51'0 0.0
2017-Nov-17 02:59N 01°16' E 103°51'0 0.0
2017-Nov-17 02:26N 01°16' E 103°51'0 0.0
2017-Nov-17 01:56N 01°16' E 103°51'0 0.0
2017-Nov-17 01:29N 01°16' E 103°51'0 0.0
2017-Nov-17 01:00N 01°16' E 103°51'0 0.0
2017-Nov-17 00:30N 01°16' E 103°51'0 0.0
2017-Nov-16 23:58N 01°16' E 103°51'0 0.0
2017-Nov-16 23:30N 01°16' E 103°51'0 0.0
2017-Nov-16 22:59N 01°16' E 103°51'0 0.0
2017-Nov-16 22:29N 01°16' E 103°51'0 0.0
2017-Nov-16 21:59N 01°16' E 103°51'0 0.0
2017-Nov-16 21:29N 01°16' E 103°51'0 0.0
2017-Nov-16 20:59N 01°16' E 103°51'0 0.0
2017-Nov-16 20:26N 01°16' E 103°51'0 0.0
2017-Nov-16 19:59N 01°16' E 103°51'0 0.0
2017-Nov-16 19:29N 01°16' E 103°51'0 0.0
2017-Nov-16 18:59N 01°16' E 103°51'0 0.0
2017-Nov-16 18:29N 01°16' E 103°51'0 0.0
2017-Nov-16 17:59N 01°16' E 103°51'0 0.0
2017-Nov-16 17:25N 01°16' E 103°51'0 0.0
2017-Nov-16 17:00N 01°16' E 103°51'0 0.0
2017-Nov-16 16:27N 01°16' E 103°51'0 0.0
2017-Nov-16 16:00N 01°16' E 103°51'0 0.0
2017-Nov-16 15:27N 01°16' E 103°51'0 0.0
2017-Nov-16 14:57N 01°16' E 103°51'0 0.0
2017-Nov-16 14:29N 01°16' E 103°51'0 0.0
2017-Nov-16 14:00N 01°16' E 103°51'0 0.0
2017-Nov-16 13:30N 01°16' E 103°51'0 0.0
2017-Nov-16 13:00N 01°16' E 103°51'0 0.0
2017-Nov-16 12:29N 01°16' E 103°51'0 0.0
2017-Nov-16 11:56N 01°16' E 103°51'0 0.0
2017-Nov-16 11:30N 01°16' E 103°51'0 0.0
2017-Nov-16 11:00N 01°16' E 103°51'0 0.0
2017-Nov-16 10:30N 01°16' E 103°51'0 0.0
2017-Nov-16 10:00N 01°16' E 103°51'0 0.0
2017-Nov-16 09:30N 01°16' E 103°51'0 0.0
2017-Nov-16 09:00N 01°16' E 103°51'1 1.8
2017-Nov-16 08:30N 01°15' E 103°51'3 6.5
2017-Nov-16 08:00N 01°14' E 103°54'3 5.7
2017-Nov-16 07:30N 01°15' E 103°57'5 8.8
2017-Nov-16 06:59N 01°16' E 104°02'19815.2
2017-Nov-15 18:00N 04°06' E 105°42'11018.4 100 / 81008.710.8 27.023.929.0
2017-Nov-15 12:00N 05°24' E 107°00'10617.6 090 / 51008.710.8 27.624.629.0
2017-Nov-15 06:00N 06°36' E 108°18'11419.0 030 / 61008.710.8 29.024.329.0
2017-Nov-15 00:00N 07°54' E 109°42'11419.0 030 / 61009.610.8 26.723.030.0
2017-Nov-14 18:00N 09°12' E 111°06'21918.3 120 / 101008.210.8 28.024.030.0
2017-Nov-14 06:00N 11°36' E 113°54'   090 / 151007.810.8 29.026.429.0
Track history (hours):
 
Tides and Currents Weather Stations Pressure Air Temp Water Temp Dewpoint Dewpoint Depression Visibility Wind Speed Wind Dir Waves Ship Positions

Patara

Last reported at 2017-Nov-20 06:00 UTC. Time now 2017-Nov-20 21:35 UTC.
Position N 01°42' E 088°24'.

Length 182 m; draft 8.9 m.

Type: Cargo ship. MMSI: 218818000.

Wind from 270 at 9 knots

Barometer 1010.0 mb
Air temperature 29.0 ° C
Visibility: greater than 10.8 NM
Dewpoint 24.1 ° C
Water temperature 30.0 ° C

Date/timePositionNaut miles runAvg speedWind from/ knotsBaromVisibWave heightAir tempDewpointWater temp
2017-Nov-20 06:00N 01°42' E 088°24'19516.2 270 / 91010.010.8 29.024.130.0
2017-Nov-19 18:00N 03°30' E 091°06'22418.7 190 / 71010.910.8 28.224.830.0
2017-Nov-19 06:00N 05°36' E 094°12'20917.4 190 / 101009.810.8 29.023.730.0
2017-Nov-18 18:00N 05°24' E 097°42'41318.5 290 / 121009.210.8 28.024.830.0
2017-Nov-17 19:42N 01°22' E 103°17'419.8
2017-Nov-17 19:29N 01°19' E 103°21'919.2
2017-Nov-17 19:01N 01°13' E 103°28'917.3
2017-Nov-17 18:30N 01°12' E 103°37'4 8.2
2017-Nov-17 18:00N 01°13' E 103°41'611.8
2017-Nov-17 17:30N 01°17' E 103°45'1 1.3
2017-Nov-17 17:00N 01°17' E 103°45'0 0.0
2017-Nov-17 16:29N 01°17' E 103°45'0 0.0
2017-Nov-17 15:57N 01°17' E 103°45'0 0.0
2017-Nov-17 15:30N 01°17' E 103°45'0 0.0
2017-Nov-17 15:00N 01°17' E 103°45'0 0.0
2017-Nov-17 14:29N 01°17' E 103°45'0 0.0
2017-Nov-17 13:58N 01°17' E 103°45'0 0.0
2017-Nov-17 13:30N 01°17' E 103°45'0 0.9
2017-Nov-17 12:58N 01°17' E 103°45'0 0.3
2017-Nov-17 12:28N 01°17' E 103°45'1 1.2
2017-Nov-17 12:01N 01°17' E 103°45'1 2.9
2017-Nov-17 11:30N 01°16' E 103°46'4 8.5
2017-Nov-17 11:00N 01°13' E 103°49'4 7.2
2017-Nov-17 10:30N 01°15' E 103°51'1 1.2
2017-Nov-17 09:58N 01°16' E 103°51'0 0.0
2017-Nov-17 09:27N 01°16' E 103°51'0 0.0
2017-Nov-17 08:54N 01°16' E 103°51'0 0.0
2017-Nov-17 08:29N 01°16' E 103°51'0 0.0
2017-Nov-17 07:59N 01°16' E 103°51'0 0.0
2017-Nov-17 07:25N 01°16' E 103°51'0 0.0
2017-Nov-17 06:58N 01°16' E 103°51'0 0.0
2017-Nov-17 06:27N 01°16' E 103°51'0 0.0
2017-Nov-17 05:59N 01°16' E 103°51'0 0.0
2017-Nov-17 05:30N 01°16' E 103°51'0 0.0
2017-Nov-17 04:56N 01°16' E 103°51'0 0.0
2017-Nov-17 04:29N 01°16' E 103°51'0 0.0
2017-Nov-17 03:57N 01°16' E 103°51'0 0.0
2017-Nov-17 03:24N 01°16' E 103°51'0 0.0
2017-Nov-17 02:59N 01°16' E 103°51'0 0.0
2017-Nov-17 02:26N 01°16' E 103°51'0 0.0
2017-Nov-17 01:56N 01°16' E 103°51'0 0.0
2017-Nov-17 01:29N 01°16' E 103°51'0 0.0
2017-Nov-17 01:00N 01°16' E 103°51'0 0.0
2017-Nov-17 00:30N 01°16' E 103°51'0 0.0
2017-Nov-16 23:58N 01°16' E 103°51'0 0.0
2017-Nov-16 23:30N 01°16' E 103°51'0 0.0
2017-Nov-16 22:59N 01°16' E 103°51'0 0.0
2017-Nov-16 22:29N 01°16' E 103°51'0 0.0
2017-Nov-16 21:59N 01°16' E 103°51'0 0.0
2017-Nov-16 21:29N 01°16' E 103°51'0 0.0
2017-Nov-16 20:59N 01°16' E 103°51'0 0.0
2017-Nov-16 20:26N 01°16' E 103°51'0 0.0
2017-Nov-16 19:59N 01°16' E 103°51'0 0.0
2017-Nov-16 19:29N 01°16' E 103°51'0 0.0
2017-Nov-16 18:59N 01°16' E 103°51'0 0.0
2017-Nov-16 18:29N 01°16' E 103°51'0 0.0
2017-Nov-16 17:59N 01°16' E 103°51'0 0.0
2017-Nov-16 17:25N 01°16' E 103°51'0 0.0
2017-Nov-16 17:00N 01°16' E 103°51'0 0.0
2017-Nov-16 16:27N 01°16' E 103°51'0 0.0
2017-Nov-16 16:00N 01°16' E 103°51'0 0.0
2017-Nov-16 15:27N 01°16' E 103°51'0 0.0
2017-Nov-16 14:57N 01°16' E 103°51'0 0.0
2017-Nov-16 14:29N 01°16' E 103°51'0 0.0
2017-Nov-16 14:00N 01°16' E 103°51'0 0.0
2017-Nov-16 13:30N 01°16' E 103°51'0 0.0
2017-Nov-16 13:00N 01°16' E 103°51'0 0.0
2017-Nov-16 12:29N 01°16' E 103°51'0 0.0
2017-Nov-16 11:56N 01°16' E 103°51'0 0.0
2017-Nov-16 11:30N 01°16' E 103°51'0 0.0
2017-Nov-16 11:00N 01°16' E 103°51'0 0.0
2017-Nov-16 10:30N 01°16' E 103°51'0 0.0
2017-Nov-16 10:00N 01°16' E 103°51'0 0.0
2017-Nov-16 09:30N 01°16' E 103°51'0 0.0
2017-Nov-16 09:00N 01°16' E 103°51'1 1.8
2017-Nov-16 08:30N 01°15' E 103°51'3 6.5
2017-Nov-16 08:00N 01°14' E 103°54'3 5.7
2017-Nov-16 07:30N 01°15' E 103°57'5 8.8
2017-Nov-16 06:59N 01°16' E 104°02'19815.2
2017-Nov-15 18:00N 04°06' E 105°42'11018.4 100 / 81008.710.8 27.023.929.0
2017-Nov-15 12:00N 05°24' E 107°00'10617.6 090 / 51008.710.8 27.624.629.0
2017-Nov-15 06:00N 06°36' E 108°18'11419.0 030 / 61008.710.8 29.024.329.0
2017-Nov-15 00:00N 07°54' E 109°42'11419.0 030 / 61009.610.8 26.723.030.0
2017-Nov-14 18:00N 09°12' E 111°06'21918.3 120 / 101008.210.8 28.024.030.0
2017-Nov-14 06:00N 11°36' E 113°54'   090 / 151007.810.8 29.026.429.0

Dump ship's entire track history